createdAt,value
2023-02-23T00:01:14.595Z,7.81
2023-02-23T00:06:18.246Z,7.67
2023-02-23T00:11:21.679Z,7.54
2023-02-23T00:16:25.587Z,7.65
2023-02-23T00:21:35.205Z,7.62
2023-02-23T00:26:39.176Z,7.66
2023-02-23T00:31:40.911Z,7.76
2023-02-23T00:36:43.009Z,7.71
2023-02-23T00:41:46.660Z,7.74
2023-02-23T00:46:51.135Z,7.79
2023-02-23T00:51:52.982Z,7.80
2023-02-23T00:56:54.644Z,7.76
2023-02-23T01:01:57.646Z,7.77
2023-02-23T01:06:59.317Z,7.79
2023-02-23T01:12:02.388Z,7.84
2023-02-23T01:17:04.194Z,7.84
2023-02-23T01:22:05.883Z,7.84
2023-02-23T01:27:07.549Z,7.80
2023-02-23T01:32:09.207Z,7.84
2023-02-23T01:37:10.915Z,7.82
2023-02-23T01:42:15.757Z,7.79
2023-02-23T01:47:20.366Z,7.82
2023-02-23T01:52:22.098Z,7.81
2023-02-23T01:57:25.099Z,7.81
2023-02-23T02:02:33.643Z,7.78
2023-02-23T02:07:36.625Z,7.86
2023-02-23T02:12:39.523Z,7.90
2023-02-23T02:17:53.617Z,7.88
2023-02-23T02:22:55.185Z,7.80
2023-02-23T02:28:18.021Z,7.76
2023-02-23T02:33:45.897Z,7.78
2023-02-23T02:38:59.372Z,7.80
2023-02-23T02:44:15.203Z,7.79
2023-02-23T02:49:26.727Z,7.78
2023-02-23T02:54:34.431Z,7.81
2023-02-23T03:00:06.634Z,7.80
2023-02-23T03:05:39.255Z,7.76
2023-02-23T03:11:09.062Z,7.75
2023-02-23T03:16:38.920Z,7.73
2023-02-23T03:22:09.573Z,7.69
2023-02-23T03:27:42.600Z,7.65
2023-02-23T03:33:11.095Z,7.65
2023-02-23T03:38:39.282Z,7.64
2023-02-23T03:44:09.930Z,7.67
2023-02-23T03:49:32.550Z,7.69
2023-02-23T03:54:59.493Z,7.71
2023-02-23T04:00:24.822Z,7.66
2023-02-23T04:05:47.077Z,7.70
2023-02-23T04:11:21.549Z,7.67
2023-02-23T04:16:23.326Z,7.57
2023-02-23T04:21:25.232Z,7.56
2023-02-23T04:26:26.823Z,7.56
2023-02-23T04:31:28.441Z,7.58
2023-02-23T04:36:30.401Z,7.53
2023-02-23T04:41:32.036Z,7.49
2023-02-23T04:46:33.726Z,7.44
2023-02-23T04:51:36.630Z,7.39
2023-02-23T04:56:39.443Z,7.37
2023-02-23T05:01:41.147Z,7.39
2023-02-23T05:06:42.980Z,7.38
2023-02-23T05:11:44.590Z,7.44
2023-02-23T05:16:46.172Z,7.44
2023-02-23T05:21:50.148Z,7.44
2023-02-23T05:26:51.858Z,7.42
2023-02-23T05:31:53.515Z,7.48
2023-02-23T05:36:55.266Z,7.50
2023-02-23T05:41:56.875Z,7.53
2023-02-23T05:46:58.538Z,7.53
2023-02-23T05:52:00.463Z,7.50
2023-02-23T05:57:02.103Z,7.50
2023-02-23T06:02:06.026Z,7.50
2023-02-23T06:07:07.878Z,7.50
2023-02-23T06:12:09.560Z,7.53
2023-02-23T06:17:11.246Z,7.54
2023-02-23T06:22:13.075Z,7.58
2023-02-23T06:27:31.563Z,7.53
2023-02-23T06:32:33.232Z,7.55
2023-02-23T06:37:37.336Z,7.50
2023-02-23T06:42:38.927Z,7.53
2023-02-23T06:47:41.093Z,7.55
2023-02-23T06:52:42.875Z,7.54
2023-02-23T06:57:44.862Z,7.56
2023-02-23T07:02:46.595Z,7.57
2023-02-23T07:07:48.324Z,7.56
2023-02-23T07:12:49.985Z,7.54
2023-02-23T07:17:52.894Z,7.57
2023-02-23T07:22:54.988Z,7.57
2023-02-23T07:27:59.048Z,7.54
2023-02-23T07:33:00.925Z,7.52
2023-02-23T07:38:02.574Z,7.52
2023-02-23T07:43:04.298Z,7.48
2023-02-23T07:48:06.109Z,7.54
2023-02-23T07:53:07.964Z,7.49
2023-02-23T07:58:09.868Z,7.51
2023-02-23T08:03:11.673Z,7.55
2023-02-23T08:08:13.617Z,7.59
2023-02-23T08:13:17.512Z,7.65
2023-02-23T08:18:19.259Z,7.72
2023-02-23T08:23:20.983Z,7.70
2023-02-23T08:28:23.222Z,7.71
2023-02-23T08:33:24.968Z,7.73
2023-02-23T08:38:26.572Z,7.74
2023-02-23T08:43:29.207Z,7.75
2023-02-23T08:48:30.809Z,7.73
2023-02-23T08:53:32.730Z,7.79
2023-02-23T08:58:35.790Z,7.78
2023-02-23T09:03:39.737Z,7.82
2023-02-23T09:08:42.276Z,7.80
2023-02-23T09:13:44.753Z,7.85
2023-02-23T09:18:46.540Z,7.83
2023-02-23T09:23:51.132Z,7.79
2023-02-23T09:28:52.737Z,7.78
2023-02-23T09:33:55.141Z,7.82
2023-02-23T09:38:57.752Z,7.84
2023-02-23T09:44:12.603Z,7.93
2023-02-23T09:49:19.809Z,7.90
2023-02-23T09:54:24.247Z,7.93
2023-02-23T09:59:26.162Z,7.95
2023-02-23T10:04:32.710Z,7.98
2023-02-23T10:10:08.547Z,8.02
2023-02-23T10:15:28.746Z,7.99
2023-02-23T10:21:01.299Z,8.03
2023-02-23T10:26:07.710Z,8.08
2023-02-23T10:31:24.466Z,8.09
2023-02-23T10:36:39.457Z,8.12
2023-02-23T10:41:42.981Z,8.02
2023-02-23T10:46:49.903Z,8.02
2023-02-23T10:51:58.240Z,8.11
2023-02-23T10:57:00.100Z,8.10
2023-02-23T11:02:22.816Z,8.14
2023-02-23T11:07:31.134Z,8.18
2023-02-23T11:12:41.890Z,8.15
2023-02-23T11:17:43.598Z,8.15
2023-02-23T11:22:45.741Z,8.14
2023-02-23T11:27:51.640Z,8.21
2023-02-23T11:32:57.398Z,8.21
2023-02-23T11:37:59.320Z,8.17
2023-02-23T11:43:09.980Z,8.32
2023-02-23T11:48:27.105Z,8.23
2023-02-23T11:53:34.922Z,8.47
2023-02-23T11:58:40.289Z,8.65
2023-02-23T12:03:51.696Z,8.54
2023-02-23T12:08:56.957Z,8.45
2023-02-23T12:14:03.826Z,8.51
2023-02-23T12:19:32.992Z,8.67
2023-02-23T12:24:34.677Z,9.00
2023-02-23T12:29:39.401Z,8.97
2023-02-23T12:34:53.098Z,8.88
2023-02-23T12:40:23.678Z,8.92
2023-02-23T12:45:37.761Z,8.92
2023-02-23T12:50:45.851Z,9.10
2023-02-23T12:56:14.655Z,8.89
2023-02-23T13:01:34.546Z,8.95
2023-02-23T13:06:50.871Z,8.86
2023-02-23T13:12:06.803Z,8.88
2023-02-23T13:17:25.670Z,8.95
2023-02-23T13:22:33.706Z,8.97
2023-02-23T13:27:46.082Z,9.00
2023-02-23T13:32:47.935Z,8.87
2023-02-23T13:38:01.741Z,8.93
2023-02-23T13:43:18.730Z,9.15
2023-02-23T13:48:35.142Z,9.47
2023-02-23T13:53:41.684Z,9.42
2023-02-23T13:58:54.124Z,9.45
2023-02-23T14:04:04.780Z,9.16
2023-02-23T14:09:23.835Z,9.45
2023-02-23T14:14:31.846Z,9.23
2023-02-23T14:19:40.937Z,9.23
2023-02-23T14:24:42.629Z,8.97
2023-02-23T14:30:05.289Z,8.77
2023-02-23T14:35:32.434Z,8.67
2023-02-23T14:40:40.884Z,8.96
2023-02-23T14:45:44.377Z,8.89
2023-02-23T14:50:45.983Z,8.63
2023-02-23T14:55:48.693Z,8.58
2023-02-23T15:00:52.082Z,8.48
2023-02-23T15:05:59.662Z,8.56
2023-02-23T15:11:05.851Z,8.53
2023-02-23T15:16:14.267Z,8.54
2023-02-23T15:21:19.895Z,8.40
2023-02-23T15:26:48.059Z,8.27
2023-02-23T15:31:53.179Z,8.46
2023-02-23T15:37:03.001Z,8.48
2023-02-23T15:42:06.510Z,8.33
2023-02-23T15:47:18.070Z,8.18
2023-02-23T15:52:24.484Z,8.29
2023-02-23T15:57:48.285Z,8.77
2023-02-23T16:02:50.652Z,8.55
2023-02-23T16:08:06.310Z,8.79
2023-02-23T16:13:08.083Z,8.73
2023-02-23T16:18:17.707Z,8.47
2023-02-23T16:23:44.600Z,8.46
2023-02-23T16:28:47.074Z,8.33
2023-02-23T16:33:57.056Z,8.93
2023-02-23T16:39:02.166Z,8.54
2023-02-23T16:44:06.253Z,8.55
2023-02-23T16:49:12.331Z,8.26
2023-02-23T16:54:14.010Z,8.35
2023-02-23T16:59:18.690Z,8.11
2023-02-23T17:04:20.906Z,8.44
2023-02-23T17:09:24.248Z,8.36
2023-02-23T17:14:31.985Z,8.13
2023-02-23T17:19:33.764Z,8.09
2023-02-23T17:24:35.574Z,8.24
2023-02-23T17:29:37.257Z,8.12
2023-02-23T17:34:39.048Z,7.90
2023-02-23T17:39:41.061Z,7.94
2023-02-23T17:44:42.765Z,8.04
2023-02-23T17:49:44.443Z,8.04
2023-02-23T17:54:46.285Z,8.01
2023-02-23T17:59:47.983Z,7.89
2023-02-23T18:04:50.605Z,7.94
2023-02-23T18:09:52.587Z,7.96
2023-02-23T18:14:54.270Z,7.72
2023-02-23T18:19:56.027Z,8.03
2023-02-23T18:24:58.247Z,7.70
2023-02-23T18:29:59.898Z,7.63
2023-02-23T18:35:01.573Z,7.55
2023-02-23T18:40:04.933Z,7.50
2023-02-23T18:45:08.146Z,7.43
2023-02-23T18:50:12.663Z,7.34
2023-02-23T18:55:15.367Z,7.25
2023-02-23T19:00:18.471Z,7.23
2023-02-23T19:05:21.967Z,7.20
2023-02-23T19:10:23.777Z,7.12
2023-02-23T19:15:25.387Z,7.00
2023-02-23T19:20:32.544Z,6.96
2023-02-23T19:25:34.337Z,6.91
2023-02-23T19:30:35.960Z,6.81
2023-02-23T19:35:41.504Z,6.76
2023-02-23T19:40:43.150Z,6.73
2023-02-23T19:45:48.950Z,6.67
2023-02-23T19:50:51.668Z,6.60
2023-02-23T19:56:05.968Z,6.54
2023-02-23T20:01:10.325Z,6.54
2023-02-23T20:06:13.648Z,6.53
2023-02-23T20:11:15.714Z,6.54
2023-02-23T20:16:17.610Z,6.53
2023-02-23T20:21:23.479Z,6.45
2023-02-23T20:26:30.962Z,6.23
2023-02-23T20:31:35.721Z,6.21
2023-02-23T20:36:37.688Z,6.33
2023-02-23T20:41:43.308Z,6.25
2023-02-23T20:46:45.126Z,6.25
2023-02-23T20:51:48.649Z,6.24
2023-02-23T20:56:58.918Z,6.28
2023-02-23T21:02:01.672Z,6.27
2023-02-23T21:07:07.753Z,6.21
2023-02-23T21:12:13.930Z,6.27
2023-02-23T21:17:15.757Z,6.13
2023-02-23T21:22:17.883Z,6.05
2023-02-23T21:27:19.613Z,6.08
2023-02-23T21:32:22.603Z,6.14
2023-02-23T21:37:24.324Z,6.18
2023-02-23T21:42:26.601Z,6.13
2023-02-23T21:47:28.193Z,6.14
2023-02-23T21:52:31.454Z,6.05
2023-02-23T21:57:33.292Z,6.03
2023-02-23T22:02:37.696Z,5.95
2023-02-23T22:07:39.470Z,5.96
2023-02-23T22:12:41.074Z,6.04
2023-02-23T22:17:43.788Z,6.01
2023-02-23T22:22:45.616Z,6.02
2023-02-23T22:27:47.364Z,5.91
2023-02-23T22:32:49.159Z,5.87
2023-02-23T22:37:50.972Z,5.85
2023-02-23T22:42:54.594Z,5.80
2023-02-23T22:48:01.474Z,5.78
2023-02-23T22:53:04.241Z,5.84
2023-02-23T22:58:09.277Z,5.84
2023-02-23T23:03:13.143Z,5.79
2023-02-23T23:08:15.305Z,5.84
2023-02-23T23:13:17.616Z,5.82
2023-02-23T23:18:20.826Z,5.87
2023-02-23T23:23:26.099Z,5.86
2023-02-23T23:28:28.627Z,5.91
2023-02-23T23:33:30.635Z,5.92
2023-02-23T23:38:32.972Z,5.78
2023-02-23T23:43:36.991Z,5.90
2023-02-23T23:48:39.317Z,5.85
2023-02-23T23:53:40.913Z,5.88
2023-02-23T23:58:42.481Z,5.84
